Flight Track Log - Related Links

Times and Time Zones

All times are in EDT time to prevent confusion due to time zone crossing. See the AWI3778 flight status page for this flight to view local times or setup timezone preferences in your user account.

Time Position Orientation Groundspeed Altitude Reporting Facility
EDT Latitude Longitude Course Direction KTS MPH feet Rate Location/Type
Sun 01:31:00 PM 44.1682 -73.2594 196° South  Level FlightAware Approximate
Sun 01:32:00 PM 44.0690 -73.2990 196° South  Level FlightAware Approximate
Sun 01:32:12 PM 44.3214 -73.1683 195° South 217 250 7,400  Level Boston Center
Sun 01:33:00 PM 43.9699 -73.3388 196° South  Level FlightAware Approximate
Sun 01:33:12 PM 44.2631 -73.1908 195° South 222 255 10,000  Level Boston Center
Sun 01:34:00 PM 43.8705 -73.3776 195° South  Level FlightAware Approximate
Sun 01:34:12 PM 44.2067 -73.2133 196° South 227 261 12,200  Level Boston Center
Sun 01:35:00 PM 43.7708 -73.4144 195° South  Level FlightAware Approximate
Sun 01:35:12 PM 44.1439 -73.2386 196° South 232 267 14,400  Level Boston Center
Sun 01:36:00 PM 43.6711 -73.4511 195° South  Level FlightAware Approximate
Sun 01:36:12 PM 44.0769 -73.2694 198° South 248 285 16,200  Level Boston Center
Sun 01:37:12 PM 44.0103 -73.2944 195° South 248 285 18,000 1,650 Climbing Boston Center
Sun 01:38:12 PM 43.9369 -73.3253 197° South 267 307 19,500 1,700 Climbing Boston Center
Sun 01:39:12 PM 43.8597 -73.3586 197° South 280 322 21,400 1,800 Climbing Boston Center
Sun 01:40:12 PM 43.7822 -73.3889 196° South 289 333 23,100 1,450 Climbing Boston Center
Sun 01:41:12 PM 43.6964 -73.4394 203° Southwest 301 346 24,300 1,150 Climbing Boston Center
Sun 01:42:12 PM 43.6228 -73.5100 215° Southwest 313 360 25,400 850 Climbing Boston Center
Sun 01:43:12 PM 43.5639 -73.5719 217° Southwest 324 373 26,000 300 Climbing Boston Center
Sun 01:44:12 PM 43.4669 -73.6703 216° Southwest 347 399 26,000  Level Boston Center
Sun 01:45:12 PM 43.3828 -73.7542 216° Southwest 373 429 26,000  Level Boston Center
Sun 01:46:12 PM 43.2900 -73.8492 217° Southwest 414 476 26,000  Level Boston Center
Sun 01:47:12 PM 43.1928 -73.9494 217° Southwest 432 497 26,000  Level Boston Center
Sun 01:48:12 PM 43.0997 -74.0439 217° Southwest 432 497 26,000  Level Boston Center
Sun 01:49:12 PM 43.0067 -74.1381 217° Southwest 432 497 26,000  Level Boston Center
Sun 01:50:12 PM 42.9136 -74.2317 216° Southwest 432 497 26,000  Level Boston Center
Sun 01:51:12 PM 42.8139 -74.3308 216° Southwest 420 483 26,000  Level Boston Center
Sun 01:52:12 PM 42.7250 -74.4186 216° Southwest 415 478 26,000  Level Boston Center
Sun 01:53:12 PM 42.6442 -74.5033 218° Southwest 396 456 26,000  Level Boston Center
Sun 01:54:12 PM 42.5572 -74.5850 215° Southwest 389 448 26,000 -300 Level Boston Center
Sun 01:55:12 PM 42.4703 -74.6694 216° Southwest 389 448 25,400 -1,010 Descending Boston Center
Sun 01:57:40 PM 42.2717 -74.8539 215° Southwest 373 429 22,500 -1,171 Descending New York Center
Sun 01:58:42 PM 42.1897 -74.9300 215° Southwest 368 423 21,300 -1,279 Descending New York Center
Sun 01:59:42 PM 42.0975 -75.0136 214° Southwest 363 418 19,900 -1,150 Descending New York Center
Sun 02:00:42 PM 42.0197 -75.0867 215° Southwest 363 418 19,000 -446 Descending New York Center
Sun 02:01:43 PM 41.9467 -75.1517 214° Southwest 357 411 19,000  Level New York Center
Sun 02:02:41 PM 41.8631 -75.2158 210° Southwest 357 411 19,000 -610 Level New York Center
Sun 02:03:41 PM 41.7769 -75.2881 212° Southwest 352 405 17,800 -1,339 Descending New York Center
Sun 02:04:42 PM 41.6956 -75.3517 210° Southwest 346 398 16,300 -1,426 Descending New York Center
Sun 02:05:43 PM 41.6203 -75.4133 211° Southwest 336 387 14,900 -1,210 Descending New York Center
Sun 02:06:41 PM 41.5536 -75.4669 211° Southwest 325 374 13,900 -655 Descending New York Center
Sun 02:07:42 PM 41.4697 -75.5358 212° Southwest 330 380 13,600 -836 Descending New York Center
Sun 02:08:43 PM 41.3986 -75.5914 210° Southwest 319 367 12,200 -864 Descending New York Center
Sun 02:09:40 PM 41.3342 -75.6422 211° Southwest 314 361 11,900 -508 Descending New York Center
Sun 02:10:41 PM 41.2497 -75.6664 192° South 279 321 11,200 -793 Descending New York Center
Sun 02:11:41 PM 41.1778 -75.6419 166° South 285 328 10,300 -645 Descending New York Center
Sun 02:12:42 PM 41.1036 -75.6228 169° South 290 334 9,900 -198 Descending New York Center
Sun 02:13:42 PM 41.0214 -75.5978 167° South 285 328 9,900 50 Level New York Center
Sun 02:14:42 PM 40.9472 -75.5786 169° South 277 319 10,000 51 Climbing New York Center
Sun 02:15:40 PM 40.8711 -75.5542 166° South 277 319 10,000  Level New York Center
Sun 02:16:41 PM 40.7969 -75.5325 168° South 277 319 10,000  Level New York Center
Sun 02:17:42 PM 40.7186 -75.5078 167° South 277 319 10,000  Level New York Center
Sun 02:18:42 PM 40.6444 -75.4889 169° South 277 319 10,000  Level New York Center
Sun 02:19:40 PM 40.5764 -75.4681 167° South 277 319 10,000 -454 Level New York Center
Sun 02:20:41 PM 40.5022 -75.4492 169° South 277 319 9,100 -488 Descending New York Center
Sun 02:21:43 PM 40.4314 -75.4472 179° South 272 313 9,000 -650 Descending New York Center
Sun 02:22:41 PM 40.3658 -75.4753 198° South 242 278 7,800 -1,017 Descending New York Center
Sun 02:23:41 PM 40.3083 -75.5014 199° South 227 261 7,000 -400 Descending New York Center
Sun 02:24:41 PM 40.2533 -75.5247 198° South 222 255 7,000  Level New York Center
Sun 02:25:42 PM 40.1961 -75.5453 195° South 230 265 7,000  Level New York Center
Sun 02:27:41 PM 40.0989 -75.4736 151° Southeast 210 242 7,000 -265 Level New York Center
Sun 02:28:43 PM 40.0817 -75.3856 104° East 216 249 6,200 -504 Descending New York Center
Sun 02:29:40 PM 40.0717 -75.3172 101° East 216 249 6,000 -158 Descending New York Center
Sun 02:29:59 PM 40.0667 -75.2833 101° East 213 245 6,000  Level Philadelphia TRACON
Sun 02:31:05 PM 40.0500 -75.2000 105° East 203 234 6,000  Level Philadelphia TRACON
Sun 02:31:59 PM 40.0000 -75.1833 166° South 196 226 6,000  Level Philadelphia TRACON
Sun 02:32:59 PM 39.9833 -75.1333 113° Southeast 220 253 6,000  Level Philadelphia TRACON
Sun 02:33:59 PM 40.0000 -75.0500 75° East 208 239 6,000  Level Philadelphia TRACON
Sun 02:34:59 PM 40.0167 -74.9833 72° East 215 247 6,000 -250 Level Philadelphia TRACON
Sun 02:35:59 PM 40.0333 -74.9000 75° East 210 242 5,500 -800 Descending Philadelphia TRACON
Sun 02:36:59 PM 39.9833 -74.9000 180° South 209 241 4,400 -750 Descending Philadelphia TRACON
Sun 02:37:59 PM 39.9500 -74.9333 217° Southwest 193 222 4,000 -400 Descending Philadelphia TRACON
Sun 02:38:59 PM 39.9167 -75.0000 237° Southwest 197 227 3,600 -400 Descending Philadelphia TRACON

Login

Don't have an account? Register now (free) for customized features, flight alerts, and more!